Flight Track Log - Related Links

Times and Time Zones

All times are in EDT time to prevent confusion due to time zone crossing. See the EJA951 flight status page for this flight to view local times or setup timezone preferences in your user account.

Time Position Orientation Groundspeed Altitude Reporting Facility
EDT Latitude Longitude Course Direction KTS MPH feet Rate Location/Type
Fri 03:40:09 PM 40.8833 -74.0333 55° Northeast 197 227 2,200  Level New York TRACON
Fri 03:41:09 PM 40.9333 -74.1000 315° West 254 292 4,000 1,900 Climbing New York TRACON
Fri 03:42:09 PM 40.9667 -74.1667 304° West 269 310 6,000 1,050 Climbing New York TRACON
Fri 03:43:09 PM 41.0333 -74.1667 360° North 261 300 6,100 800 Climbing New York TRACON
Fri 03:44:09 PM 41.1167 -74.1500 North 273 314 7,600 2,084 Climbing New York TRACON
Fri 03:45:00 PM 41.3218 -73.1408 55° Northeast  Level Estimated
Fri 03:45:56 PM 41.1914 -73.9958 57° Northeast 306 352 11,900  Level Boston Center
Fri 03:46:56 PM 41.2158 -73.8750 75° East 355 409 13,800 1,650 Climbing Boston Center
Fri 03:47:56 PM 41.2422 -73.7653 72° East 384 442 15,200 1,700 Climbing Boston Center
Fri 03:48:56 PM 41.2817 -73.5919 73° East 398 458 17,200 1,850 Climbing Boston Center
Fri 03:49:56 PM 41.3144 -73.4267 75° East 407 468 18,900 900 Climbing Boston Center
Fri 03:50:56 PM 41.3553 -73.2642 71° East 437 503 19,000 50 Climbing Boston Center
Fri 03:51:56 PM 41.3919 -73.0847 75° East 483 556 19,000  Level Boston Center
Fri 03:52:56 PM 41.4261 -72.9272 74° East 488 562 19,000  Level Boston Center
Fri 03:54:08 PM 41.4642 -72.7364 75° East 488 562 19,000  Level Boston Center
Fri 03:55:20 PM 41.5022 -72.5453 75° East 488 562 19,000  Level Boston Center
Fri 03:56:20 PM 41.5397 -72.3625 75° East 439 505 19,000  Level Boston Center
Fri 03:57:20 PM 41.5747 -72.2042 73° East 413 475 19,000  Level Boston Center
Fri 03:58:20 PM 41.6036 -72.0569 75° East 399 459 19,000 -500 Level Boston Center
Fri 03:59:20 PM 41.6322 -71.9125 75° East 399 459 18,000 -1,550 Descending Boston Center
Fri 04:00:20 PM 41.6586 -71.7706 76° East 393 452 15,900 -1,950 Descending Boston Center
Fri 04:01:20 PM 41.6828 -71.6450 76° East 376 433 14,100 -1,850 Descending Boston Center
Fri 04:02:20 PM 41.7067 -71.5169 76° East 360 414 12,200 -1,550 Descending Boston Center
Fri 04:03:20 PM 41.7353 -71.4247 67° East 317 365 11,000 -600 Descending Boston Center
Fri 04:04:20 PM 41.8139 -71.3761 25° Northeast 272 313 11,000 -300 Level Boston Center
Fri 04:05:20 PM 41.8803 -71.3414 21° North 267 307 10,400 -900 Descending Boston Center
Fri 04:06:20 PM 41.9592 -71.3011 21° North 272 313 9,200 -1,000 Descending Boston Center
Fri 04:07:20 PM 42.0214 -71.2886 North 258 297 8,400 -1,050 Descending Boston Center
Fri 04:08:20 PM 42.0858 -71.2539 22° Northeast 232 267 7,100 -1,100 Descending Boston Center
Fri 04:09:20 PM 42.1311 -71.2111 35° Northeast 221 254 6,200 -1,350 Descending Boston Center
Fri 04:10:20 PM 42.1847 -71.1569 37° Northeast 216 249 4,400 -1,485 Descending Boston Center
Fri 04:11:01 PM 42.2167 -71.1167 43° Northeast 216 249 3,700 -1,313 Descending KA90
Fri 04:11:56 PM 42.2500 -71.0667 48° Northeast 213 245 2,300 -1,297 Descending KA90
Fri 04:12:52 PM 42.3000 -71.0333 26° Northeast 182 209 1,300 -938 Descending KA90
Fri 04:14:04 PM 42.3500 -71.0167 14° North 130 150 300 2,798 Descending KA90
Fri 04:16:20 PM 42.4569 -70.9317 30° Northeast 187 215 11,000 4,721 Climbing Boston Center

Login

Don't have an account? Register now (free) for customized features, flight alerts, and more!